Huron Township Applefest 10K

back to results

Oct. 7, 2001

Huron Township Applefest 10K
New Boston, MI


Overall Male Winners
Place Name City Age Overall Time Pace
1 Mark Scoles Monroe MI 25 1 33:28.9 5:24/M

Men 14-19
Place Name City Age Overall Time Pace
1 Joey Smrcka New Boston MI 15 29 43:13.4 6:58/M
2 Mike Jakubczak Monroe MI 15 45 45:58.0 7:25/M

Men 20 to 24
Place Name City Age Overall Time Pace
1 Chris Tapley Peru IN 24 83 55:33.2 8:58/M
2 Jason Otter New Boston MI 24 99 1:01:47.9 9:58/M

Men 25 to 29
Place Name City Age Overall Time Pace
1 Thomas Landrum New Boston MI 28 54 48:19.5 7:48/M
2 Mark Gill Flat Rock MI 29 71 51:00.9 8:14/M
3 Jeff Andrews Melvindale MI 26 76 53:10.4 8:35/M

Men 30 to 34
Place Name City Age Overall Time Pace
1 Matthew Perennou Rochester Hills MI33 6 36:13.2 5:50/M
2 Cosmin Facaeanu Sterling Hgts MI 31 11 37:50.6 6:06/M
3 Michael Selke Westland MI 31 18 40:19.5 6:30/M
4 Joel Service Lasalle MI 33 63 49:35.4 8:00/M
5 David Buchanan Dearborn Heights M32 80 54:28.0 8:47/M
6 David Allie Trenton MI 32 93 59:47.7 9:39/M

Men 35 to 39
Place Name City Age Overall Time Pace
1 Bob Baril Utica MI 39 7 36:14.7 5:51/M
2 Steve Broda Northville MI 39 25 41:55.2 6:46/M
3 Andrew Ball Monroe MI 35 27 42:57.8 6:56/M
4 Eric Pagac Dearborn MI 39 31 43:40.6 7:03/M
5 Bob Kocembo Belleville MI 37 85 55:51.0 9:00/M

Men 40 to 44
Place Name City Age Overall Time Pace
1 Tom Yates New Boston MI 40 2 34:53.0 5:38/M
2 Brian Begeman Petersburg MI 40 3 35:52.8 5:47/M
3 Todd Kelly Troy MI 40 4 36:05.7 5:49/M
4 Rick Armes Livonia MI 41 5 36:06.6 5:49/M
5 Michael Webster Northville MI 42 8 36:49.9 5:56/M
6 Kenneth Cook Woodhaven MI 40 9 36:58.4 5:58/M
7 Thomas Zarzycki Harrison Twp MI 43 12 38:20.1 6:11/M
8 Neil Keller Grosse Ile MI 40 13 38:23.3 6:11/M
9 Michael Sautter Allen Park MI 41 16 39:42.4 6:24/M
10 Michael Whoolery Allen Park MI 41 26 42:35.0 6:52/M
11 Douglas Bajor Royal Oak MI 42 28 43:00.8 6:56/M
12 Steve Ball Temperance MI 40 30 43:24.4 7:00/M
13 Michael Garr Trenton MI 44 33 43:41.8 7:03/M
14 Russell Cicchelli Livonia MI 44 39 45:17.7 7:18/M
15 David Zaran Riverview MI 41 46 46:46.7 7:33/M
16 Richard Jakubczak Monroe MI 44 74 51:40.1 8:20/M
17 Ron Dzierwa New Boston MI 44 88 57:41.5 9:18/M

Men 45 to 49
Place Name City Age Overall Time Pace
1 John Tarkowski Garden City MI 48 10 37:29.9 6:03/M
2 Gene Zimmerman Riverview MI 48 19 40:38.4 6:33/M
3 Jim Jackel Monroe MI 48 20 40:44.8 6:34/M
4 Ray Pilon Belleville MI 48 34 43:59.4 7:06/M
5 Alan Hassoun Dearborn Heights M48 37 44:38.7 7:12/M
6 Steve Bartman Monroe MI 46 42 45:30.7 7:20/M
7 Dennis Sabatowich Detroit MI 48 43 45:39.4 7:22/M
8 Bill Van Vianen Sterling Hgts MI 48 56 48:20.8 7:48/M
9 Gary Robinson Trenton MI 45 62 49:22.6 7:58/M
10 Keith Andrews New Hudson MI 49 64 49:55.0 8:03/M
11 Roger Katakowski Chelsea MI 49 73 51:29.6 8:18/M
12 Alan Whitehead Novi MI 48 77 53:19.7 8:36/M
13 Jerry Bauer Belleville MI 47 89 57:55.2 9:20/M
14 Rick Seymour New Boston MI 47 95 59:58.4 9:40/M

Men 50 to 54
Place Name City Age Overall Time Pace
1 Kenneth Rowe Southgate MI 54 14 39:11.1 6:19/M
2 Rich Walker Monroe MI 51 15 39:35.8 6:23/M
3 Tim Laporte Riverview MI 54 17 39:53.7 6:26/M
4 Gene Stephens Wyandotte MI 51 22 40:55.1 6:36/M
5 Douglas Soliz Allen Park MI 51 23 41:44.6 6:44/M
6 Mike Simms Allen Park MI 52 32 43:41.4 7:03/M
7 Jim Mohler Monroe MI 50 35 44:11.4 7:08/M
8 Tom Foxworthy Trenton MI 50 44 45:57.4 7:25/M
9 David Howell Riverview MI 51 47 47:14.5 7:37/M
10 Fred Howard Brownstown MI 52 65 50:00.6 8:04/M
11 Jim Brozovich Farmington Hills M50 66 50:04.0 8:05/M
12 John Houser Rochester Hills MI54 68 50:30.4 8:09/M
13 Richard Porte Dearborn MI 50 79 53:55.2 8:42/M
14 Howard Bosworth Huntington Woods M50 86 55:51.9 9:00/M
15 Larry Salinas Saginaw MI 51 90 59:16.5 9:34/M

Men 55 to 59
Place Name City Age Overall Time Pace
1 Gavin Williams Detroit MI 55 38 44:59.5 7:15/M
2 Robert Axford Woodhaven MI 55 41 45:28.8 7:20/M
3 Brad Behrman Plymouth MI 55 50 47:42.9 7:42/M
4 Freddy Standaert Detroit MI 58 53 48:06.2 7:45/M
5 Dan Earle Ann Arbor MI 59 55 48:20.2 7:48/M
6 Dave Mrowca Taylor MI 55 67 50:25.7 8:08/M
7 Jim Hapley Dearborn MI 57 104 1:16:45.9 12:23/M

Men 60 and over
Place Name City Age Overall Time Pace
1 David Lee Grosse Ile MI 64 40 45:25.7 7:20/M
2 Harvey Rubenstein West Bloomfield MI61 59 48:49.9 7:52/M
3 Marvin Stevenson Rochester Hills MI66 61 49:22.0 7:58/M
4 Tom Gerick Dearborn Heights M61 82 54:46.6 8:50/M



Overall Female Winners
Place Name City Age Overall Time Pace
1 Laura Maslar Grosse Ile MI 44 21 40:45.9 6:34/M

Women 20 to 24
Place Name City Age Overall Time Pace
1 Jenny Hampton Novi MI 22 24 41:49.3 6:45/M
2 Mary Galambos Rockwood MI 24 36 44:15.3 7:08/M
3 Brandie Fitzsimmons Belleville MI 21 48 47:30.5 7:40/M
4 Nicole Behnke Haslett MI 23 75 52:24.7 8:27/M
5 Asia Renning Milan MI 20 81 54:37.3 8:49/M
6 Nicole House New Boston MI 22 98 1:01:47.5 9:58/M
7 Kari St. Bernard Peru IN 24 102 1:06:56.0 10:48/M

Women 25 to 29
Place Name City Age Overall Time Pace
1 Dusti Edmonds Carleton MI 29 97 1:00:25.2 9:45/M

Women 30 to 34
Place Name City Age Overall Time Pace
1 Jayne Service Lasalle MI 34 69 50:36.7 8:10/M

Women 35 to 39
Place Name City Age Overall Time Pace
1 Paula Cook New Boston MI 37 51 47:43.5 7:42/M
2 Michelle Cook Woodhaven MI 36 70 51:00.0 8:14/M
3 Laura Boike Canton MI 35 72 51:22.0 8:17/M

Women 40 to 44
Place Name City Age Overall Time Pace
1 Barb Casler Miluski Canton MI 43 52 47:48.2 7:43/M
2 Diane Zekind Farmington Hills M40 58 48:48.7 7:52/M
3 Frances Buttigieg Woodhaven MI 44 60 48:59.3 7:54/M
4 Sharon Labelle-Dzierwa New Boston MI 41 78 53:25.3 8:37/M
5 Gail Sheeran Trenton MI 41 87 56:27.7 9:06/M
6 Renee Pesci Southgate MI 40 91 59:41.4 9:38/M
7 Karen Dukatz Westland MI 41 101 1:04:24.4 10:23/M

Women 45 to 49
Place Name City Age Overall Time Pace
1 Liz Campbell Leamington ON 48 49 47:33.9 7:40/M
2 Brenda Murphy Taylor MI 46 84 55:36.1 8:58/M
3 Cindy Kinkead Southgate MI 45 92 59:45.6 9:38/M
4 Alice Stanko Wyandotte MI 47 100 1:04:06.7 10:20/M
5 Maryann Harris Saline MI 45 105 1:19:33.7 12:50/M

Women 50 to 54
Place Name City Age Overall Time Pace
1 Donna Olson Bloomfield Hills M51 57 48:29.7 7:49/M
2 Cecilia Brzys South Lyon MI 52 96 1:00:17.3 9:43/M
3 Marcia Stein New Boston MI 50 103 1:14:57.5 12:05/M

Women 60 and over
Place Name City Age Overall Time Pace
1 Nina Derda Wyandotte MI 67 94 59:56.7 9:40/M